EWG6RM EDDH-LOWI
Flight info
| Callsign | EWG6RM |
|---|---|
| Flight time | N/A |
| Altitude | 35000 |
| Route | IDEKO7G/33 IDEKO N850 XAROL DCT BOMBI DCT GIGET DCT ABUKA DCT TEDGO/N0466F310 DCT UTABA M738 MADEB |
| Aircraft | A319/M-SDE3FGHIRWY/LB1 |
Departure
| Time | 2026-05-06 19:02 |
|---|---|
| Airport | Hamburg Helmut Schmidt Airport (EDDH) |
Arrival
| Time | N/A |
|---|---|
| Airport | Innsbruck Airport (LOWI) |
| Time | Latitude | Longitude | Altitude | Speed | Heading |
|---|---|---|---|---|---|
| 2026-05-06 18:10 | 53.63274 | 9.99964 | 61 ft | 0 kts | 324° |
| 2026-05-06 18:50 | 53.63269 | 9.99970 | 61 ft | 2 kts | 324° |
| 2026-05-06 18:50 | 53.63253 | 9.99989 | 61 ft | 2 kts | 324° |
| 2026-05-06 18:50 | 53.63241 | 10.00004 | 61 ft | 2 kts | 324° |
| 2026-05-06 18:50 | 53.63237 | 10.00009 | 61 ft | 1 kts | 324° |
| 2026-05-06 18:51 | 53.63226 | 10.00036 | 61 ft | 2 kts | 275° |
| 2026-05-06 18:51 | 53.63228 | 10.00061 | 61 ft | 1 kts | 240° |
| 2026-05-06 18:51 | 53.63232 | 10.00070 | 61 ft | 1 kts | 225° |
| 2026-05-06 18:51 | 53.63235 | 10.00074 | 61 ft | 0 kts | 230° |
| 2026-05-06 18:55 | 53.63233 | 10.00070 | 61 ft | 1 kts | 231° |
| 2026-05-06 18:55 | 53.63224 | 10.00052 | 61 ft | 4 kts | 233° |
| 2026-05-06 18:55 | 53.63178 | 9.99955 | 61 ft | 10 kts | 230° |
| 2026-05-06 18:56 | 53.63144 | 9.99888 | 61 ft | 11 kts | 226° |
| 2026-05-06 18:56 | 53.63056 | 9.99908 | 61 ft | 10 kts | 152° |
| 2026-05-06 18:56 | 53.63008 | 9.99951 | 61 ft | 11 kts | 152° |
| 2026-05-06 18:56 | 53.62946 | 10.00006 | 61 ft | 5 kts | 153° |
| 2026-05-06 18:57 | 53.62919 | 10.00029 | 61 ft | 7 kts | 153° |
| 2026-05-06 18:57 | 53.62899 | 10.00046 | 61 ft | 0 kts | 153° |
| 2026-05-06 18:57 | 53.62891 | 10.00053 | 61 ft | 2 kts | 154° |
| 2026-05-06 18:57 | 53.62880 | 10.00060 | 61 ft | 3 kts | 164° |
| 2026-05-06 18:58 | 53.62843 | 10.00075 | 61 ft | 5 kts | 154° |
| 2026-05-06 18:58 | 53.62820 | 10.00094 | 61 ft | 6 kts | 153° |
| 2026-05-06 18:58 | 53.62761 | 10.00144 | 61 ft | 8 kts | 153° |
| 2026-05-06 18:58 | 53.62700 | 10.00197 | 61 ft | 11 kts | 153° |
| 2026-05-06 18:59 | 53.62628 | 10.00260 | 61 ft | 11 kts | 157° |
| 2026-05-06 18:59 | 53.62573 | 10.00216 | 61 ft | 10 kts | 243° |
| 2026-05-06 18:59 | 53.62540 | 10.00101 | 61 ft | 11 kts | 259° |
| 2026-05-06 18:59 | 53.62571 | 10.00004 | 61 ft | 10 kts | 326° |
| 2026-05-06 19:00 | 53.62639 | 9.99946 | 61 ft | 10 kts | 329° |
| 2026-05-06 19:00 | 53.62666 | 9.99921 | 61 ft | 0 kts | 333° |
| 2026-05-06 19:00 | 53.62668 | 9.99919 | 61 ft | 0 kts | 333° |
| 2026-05-06 19:01 | 53.62683 | 9.99907 | 61 ft | 2 kts | 333° |
| 2026-05-06 19:01 | 53.62692 | 9.99899 | 61 ft | 4 kts | 333° |
| 2026-05-06 19:01 | 53.62955 | 9.99671 | 61 ft | 81 kts | 332° |
| 2026-05-06 19:01 | 53.63672 | 9.99054 | 63 ft | 147 kts | 331° |
| 2026-05-06 19:02 | 53.64316 | 9.98478 | 279 ft | 163 kts | 335° |
| 2026-05-06 19:02 | 53.65328 | 9.97577 | 982 ft | 166 kts | 337° |
| 2026-05-06 19:02 | 53.66656 | 9.96440 | 2115 ft | 165 kts | 340° |
| 2026-05-06 19:02 | 53.67731 | 9.95559 | 2715 ft | 181 kts | 340° |
| 2026-05-06 19:03 | 53.68914 | 9.94597 | 3317 ft | 198 kts | 339° |
| 2026-05-06 19:03 | 53.69763 | 9.93906 | 3669 ft | 211 kts | 338° |
| 2026-05-06 19:03 | 53.71299 | 9.91503 | 4340 ft | 251 kts | 295° |
| 2026-05-06 19:03 | 53.71505 | 9.88482 | 4826 ft | 274 kts | 262° |
| 2026-05-06 19:04 | 53.71180 | 9.86376 | 4982 ft | 280 kts | 252° |
| 2026-05-06 19:04 | 53.70483 | 9.83290 | 4998 ft | 282 kts | 249° |
| 2026-05-06 19:04 | 53.69503 | 9.79069 | 5113 ft | 288 kts | 251° |
| 2026-05-06 19:04 | 53.68820 | 9.75874 | 5909 ft | 292 kts | 252° |
| 2026-05-06 19:05 | 53.68173 | 9.72693 | 7037 ft | 289 kts | 252° |
| 2026-05-06 19:05 | 53.67531 | 9.69462 | 8019 ft | 290 kts | 253° |
| 2026-05-06 19:05 | 53.66889 | 9.66202 | 8918 ft | 291 kts | 252° |
| 2026-05-06 19:05 | 53.66251 | 9.62974 | 9514 ft | 292 kts | 252° |
| 2026-05-06 19:06 | 53.65707 | 9.60888 | 9745 ft | 292 kts | 238° |
| 2026-05-06 19:06 | 53.63717 | 9.57880 | 9859 ft | 292 kts | 204° |
| 2026-05-06 19:06 | 53.62428 | 9.57216 | 9880 ft | 291 kts | 189° |
| 2026-05-06 19:06 | 53.59719 | 9.56686 | 10078 ft | 300 kts | 186° |
| 2026-05-06 19:07 | 53.57589 | 9.56330 | 10519 ft | 317 kts | 186° |
| 2026-05-06 19:07 | 53.56102 | 9.56070 | 10792 ft | 330 kts | 186° |
| 2026-05-06 19:07 | 53.53748 | 9.55637 | 11171 ft | 348 kts | 186° |
| 2026-05-06 19:07 | 53.50379 | 9.54992 | 11873 ft | 364 kts | 187° |
| 2026-05-06 19:08 | 53.47859 | 9.54501 | 12614 ft | 367 kts | 187° |
| 2026-05-06 19:08 | 53.45315 | 9.54003 | 13346 ft | 371 kts | 187° |
| 2026-05-06 19:08 | 53.43601 | 9.53666 | 13809 ft | 374 kts | 188° |
| 2026-05-06 19:08 | 53.40036 | 9.52963 | 14754 ft | 379 kts | 188° |
| 2026-05-06 19:09 | 53.38293 | 9.52618 | 15197 ft | 381 kts | 188° |
| 2026-05-06 19:09 | 53.34776 | 9.51928 | 16113 ft | 384 kts | 188° |
| 2026-05-06 19:09 | 53.32054 | 9.51395 | 16788 ft | 386 kts | 188° |
| 2026-05-06 19:09 | 53.30275 | 9.51045 | 17211 ft | 388 kts | 188° |
| 2026-05-06 19:10 | 53.27586 | 9.50518 | 17832 ft | 390 kts | 188° |
| 2026-05-06 19:10 | 53.24898 | 9.49992 | 18433 ft | 392 kts | 188° |
| 2026-05-06 19:10 | 53.22188 | 9.49462 | 19027 ft | 394 kts | 188° |
| 2026-05-06 19:10 | 53.19453 | 9.48928 | 19555 ft | 397 kts | 188° |
| 2026-05-06 19:11 | 53.16706 | 9.48393 | 19833 ft | 398 kts | 188° |
| 2026-05-06 19:11 | 53.13928 | 9.47851 | 20032 ft | 404 kts | 188° |
| 2026-05-06 19:11 | 53.11136 | 9.47308 | 20569 ft | 405 kts | 188° |
| 2026-05-06 19:11 | 53.07404 | 9.46584 | 21307 ft | 407 kts | 188° |
| 2026-05-06 19:12 | 53.05526 | 9.46221 | 21626 ft | 409 kts | 188° |
| 2026-05-06 19:12 | 53.02665 | 9.45669 | 22099 ft | 413 kts | 188° |
| 2026-05-06 19:12 | 52.99766 | 9.45110 | 22571 ft | 415 kts | 188° |
| 2026-05-06 19:12 | 52.96892 | 9.44523 | 23020 ft | 418 kts | 189° |
| 2026-05-06 19:13 | 52.93901 | 9.43879 | 23468 ft | 421 kts | 189° |
| 2026-05-06 19:13 | 52.90021 | 9.43039 | 24061 ft | 425 kts | 189° |
| 2026-05-06 19:13 | 52.88059 | 9.42617 | 24360 ft | 426 kts | 189° |
| 2026-05-06 19:13 | 52.83907 | 9.41730 | 24979 ft | 429 kts | 188° |
| 2026-05-06 19:14 | 52.81934 | 9.41310 | 25257 ft | 431 kts | 188° |
| 2026-05-06 19:14 | 52.78954 | 9.40677 | 25665 ft | 433 kts | 189° |
| 2026-05-06 19:14 | 52.74959 | 9.39831 | 26185 ft | 436 kts | 189° |
| 2026-05-06 19:14 | 52.72946 | 9.39404 | 26459 ft | 438 kts | 189° |
| 2026-05-06 19:15 | 52.69923 | 9.38764 | 26852 ft | 440 kts | 189° |
| 2026-05-06 19:15 | 52.66886 | 9.38120 | 27217 ft | 442 kts | 189° |
| 2026-05-06 19:15 | 52.63713 | 9.37449 | 27576 ft | 445 kts | 189° |
| 2026-05-06 19:15 | 52.59623 | 9.36497 | 28053 ft | 447 kts | 191° |
| 2026-05-06 19:16 | 52.56548 | 9.35680 | 28379 ft | 449 kts | 191° |
| 2026-05-06 19:16 | 52.54488 | 9.35125 | 28639 ft | 449 kts | 191° |
| 2026-05-06 19:16 | 52.51417 | 9.34295 | 29123 ft | 447 kts | 190° |
| 2026-05-06 19:16 | 52.47185 | 9.33155 | 29810 ft | 444 kts | 190° |
| 2026-05-06 19:17 | 52.44152 | 9.32353 | 30283 ft | 442 kts | 190° |
| 2026-05-06 19:17 | 52.41002 | 9.31528 | 30760 ft | 440 kts | 190° |
| 2026-05-06 19:17 | 52.38840 | 9.30965 | 31066 ft | 439 kts | 190° |
| 2026-05-06 19:17 | 52.34688 | 9.29886 | 31588 ft | 437 kts | 190° |
| 2026-05-06 19:18 | 52.32697 | 9.29367 | 31829 ft | 436 kts | 190° |
| 2026-05-06 19:18 | 52.29700 | 9.28584 | 32180 ft | 435 kts | 190° |
| 2026-05-06 19:18 | 52.26709 | 9.27802 | 32523 ft | 434 kts | 190° |
| 2026-05-06 19:18 | 52.23593 | 9.27008 | 32872 ft | 433 kts | 189° |
| 2026-05-06 19:19 | 52.19488 | 9.26230 | 33260 ft | 433 kts | 187° |
| 2026-05-06 19:19 | 52.16371 | 9.25662 | 33486 ft | 433 kts | 187° |
| 2026-05-06 19:19 | 52.07111 | 9.23969 | 34123 ft | 433 kts | 187° |
| 2026-05-06 19:19 | 52.03003 | 9.23022 | 34333 ft | 434 kts | 191° |
| 2026-05-06 19:20 | 52.01019 | 9.22495 | 34428 ft | 435 kts | 190° |
| 2026-05-06 19:20 | 51.98015 | 9.21716 | 34595 ft | 436 kts | 190° |
| 2026-05-06 19:20 | 51.95024 | 9.20945 | 34769 ft | 436 kts | 190° |
| 2026-05-06 19:21 | 51.88879 | 9.19355 | 34822 ft | 437 kts | 190° |
| 2026-05-06 19:21 | 51.82662 | 9.17943 | 34827 ft | 438 kts | 189° |
| 2026-05-06 19:22 | 51.76443 | 9.16620 | 34822 ft | 437 kts | 189° |
| 2026-05-06 19:22 | 51.70420 | 9.15327 | 34826 ft | 437 kts | 189° |
| 2026-05-06 19:23 | 51.64399 | 9.14030 | 34827 ft | 436 kts | 189° |
| 2026-05-06 19:23 | 51.59851 | 9.13054 | 34827 ft | 436 kts | 189° |
| 2026-05-06 19:24 | 51.55057 | 9.12026 | 34833 ft | 435 kts | 189° |
| 2026-05-06 19:24 | 51.49063 | 9.10532 | 34837 ft | 435 kts | 192° |
| 2026-05-06 19:25 | 51.43088 | 9.08490 | 34838 ft | 435 kts | 193° |
| 2026-05-06 19:25 | 51.37160 | 9.06494 | 34834 ft | 434 kts | 193° |
| 2026-05-06 19:26 | 51.31198 | 9.04577 | 34823 ft | 434 kts | 190° |
| 2026-05-06 19:26 | 51.25209 | 9.03319 | 34819 ft | 433 kts | 188° |
| 2026-05-06 19:27 | 51.19194 | 9.02102 | 34812 ft | 434 kts | 188° |
| 2026-05-06 19:27 | 51.13202 | 9.00899 | 34817 ft | 433 kts | 188° |
| 2026-05-06 19:28 | 51.07211 | 8.99705 | 34818 ft | 433 kts | 188° |
| 2026-05-06 19:28 | 51.01212 | 8.98515 | 34821 ft | 433 kts | 188° |
| 2026-05-06 19:29 | 50.95167 | 8.97318 | 34816 ft | 433 kts | 188° |
| 2026-05-06 19:29 | 50.89151 | 8.96132 | 34816 ft | 434 kts | 188° |
| 2026-05-06 19:30 | 50.83001 | 8.94929 | 34810 ft | 434 kts | 188° |
| 2026-05-06 19:30 | 50.76891 | 8.93735 | 34806 ft | 433 kts | 188° |
| 2026-05-06 19:31 | 50.70911 | 8.92568 | 34811 ft | 431 kts | 188° |
| 2026-05-06 19:31 | 50.61956 | 8.90821 | 34832 ft | 431 kts | 188° |
| 2026-05-06 19:32 | 50.55988 | 8.89660 | 34824 ft | 432 kts | 188° |
| 2026-05-06 19:32 | 50.49995 | 8.88499 | 34809 ft | 432 kts | 188° |
| 2026-05-06 19:33 | 50.44022 | 8.87343 | 34825 ft | 432 kts | 188° |
| 2026-05-06 19:33 | 50.37962 | 8.86175 | 34829 ft | 432 kts | 188° |
| 2026-05-06 19:34 | 50.31963 | 8.85022 | 34825 ft | 431 kts | 188° |
| 2026-05-06 19:34 | 50.25975 | 8.83874 | 34830 ft | 430 kts | 188° |
| 2026-05-06 19:35 | 50.20021 | 8.82736 | 34819 ft | 429 kts | 188° |
| 2026-05-06 19:35 | 50.14061 | 8.81599 | 34824 ft | 429 kts | 188° |
| 2026-05-06 19:36 | 50.08077 | 8.80463 | 34823 ft | 430 kts | 188° |
| 2026-05-06 19:36 | 50.02117 | 8.79282 | 34828 ft | 430 kts | 188° |
| 2026-05-06 19:37 | 49.96171 | 8.78030 | 34829 ft | 430 kts | 188° |
| 2026-05-06 19:37 | 49.91202 | 8.76991 | 34830 ft | 430 kts | 188° |
| 2026-05-06 19:38 | 49.84038 | 8.75514 | 34839 ft | 430 kts | 188° |
| 2026-05-06 19:38 | 49.77993 | 8.74272 | 34835 ft | 430 kts | 188° |
| 2026-05-06 19:39 | 49.72057 | 8.73052 | 34840 ft | 429 kts | 188° |
| 2026-05-06 19:39 | 49.66101 | 8.71836 | 34840 ft | 429 kts | 188° |
| 2026-05-06 19:40 | 49.60161 | 8.70639 | 34843 ft | 429 kts | 188° |
| 2026-05-06 19:40 | 49.54080 | 8.69552 | 34848 ft | 430 kts | 185° |
| 2026-05-06 19:41 | 49.48080 | 8.69779 | 34848 ft | 432 kts | 175° |
| 2026-05-06 19:41 | 49.42125 | 8.71584 | 34847 ft | 434 kts | 166° |
| 2026-05-06 19:42 | 49.36435 | 8.74901 | 34842 ft | 437 kts | 159° |
| 2026-05-06 19:42 | 49.30827 | 8.78785 | 34844 ft | 441 kts | 158° |
| 2026-05-06 19:43 | 49.25182 | 8.82698 | 34850 ft | 442 kts | 159° |
| 2026-05-06 19:43 | 49.19524 | 8.86609 | 34854 ft | 442 kts | 159° |
| 2026-05-06 19:44 | 49.13885 | 8.90493 | 34854 ft | 442 kts | 159° |
| 2026-05-06 19:44 | 49.08198 | 8.94397 | 34854 ft | 445 kts | 159° |
| 2026-05-06 19:45 | 49.03241 | 8.97793 | 34860 ft | 449 kts | 159° |
| 2026-05-06 19:45 | 48.88223 | 9.08044 | 34873 ft | 449 kts | 159° |
| 2026-05-06 19:46 | 48.59529 | 9.27408 | 34885 ft | 447 kts | 160° |
| 2026-05-06 19:46 | 48.53645 | 9.30647 | 34877 ft | 445 kts | 164° |
| 2026-05-06 19:47 | 48.47749 | 9.33793 | 34873 ft | 445 kts | 163° |
| 2026-05-06 19:47 | 48.27028 | 9.45212 | 34883 ft | 446 kts | 163° |
| 2026-05-06 19:48 | 48.24053 | 9.46707 | 34708 ft | 443 kts | 167° |
| 2026-05-06 19:48 | 48.21040 | 9.48017 | 34493 ft | 442 kts | 167° |
| 2026-05-06 19:48 | 48.18062 | 9.49320 | 34273 ft | 442 kts | 167° |
| 2026-05-06 19:48 | 48.15073 | 9.50635 | 34067 ft | 441 kts | 167° |
| 2026-05-06 19:49 | 48.12112 | 9.51929 | 33855 ft | 441 kts | 167° |
| 2026-05-06 19:49 | 48.09159 | 9.53329 | 33622 ft | 442 kts | 165° |
| 2026-05-06 19:49 | 48.06258 | 9.54939 | 33387 ft | 443 kts | 162° |
| 2026-05-06 19:49 | 48.03395 | 9.56781 | 33087 ft | 446 kts | 159° |
| 2026-05-06 19:50 | 48.00601 | 9.58839 | 32701 ft | 446 kts | 156° |
| 2026-05-06 19:50 | 47.97855 | 9.61134 | 32337 ft | 448 kts | 153° |
| 2026-05-06 19:50 | 47.95159 | 9.63674 | 32029 ft | 452 kts | 151° |
| 2026-05-06 19:50 | 47.92575 | 9.66390 | 31754 ft | 453 kts | 149° |
| 2026-05-06 19:51 | 47.90045 | 9.69155 | 31260 ft | 440 kts | 149° |
| 2026-05-06 19:51 | 47.87686 | 9.71719 | 30736 ft | 420 kts | 150° |
| 2026-05-06 19:51 | 47.85307 | 9.74288 | 30170 ft | 400 kts | 150° |
| 2026-05-06 19:51 | 47.83101 | 9.76661 | 29597 ft | 382 kts | 150° |
| 2026-05-06 19:52 | 47.80965 | 9.78955 | 29027 ft | 367 kts | 150° |
| 2026-05-06 19:52 | 47.78887 | 9.81177 | 28452 ft | 361 kts | 150° |
| 2026-05-06 19:52 | 47.76839 | 9.83363 | 27880 ft | 356 kts | 150° |
| 2026-05-06 19:52 | 47.74823 | 9.85514 | 27310 ft | 354 kts | 150° |
| 2026-05-06 19:53 | 47.72829 | 9.87642 | 26748 ft | 351 kts | 150° |
| 2026-05-06 19:53 | 47.71514 | 9.89047 | 26372 ft | 349 kts | 149° |
| 2026-05-06 19:53 | 47.68889 | 9.91852 | 25611 ft | 345 kts | 149° |
| 2026-05-06 19:53 | 47.66946 | 9.93924 | 25041 ft | 342 kts | 149° |
| 2026-05-06 19:54 | 47.65022 | 9.95977 | 24421 ft | 338 kts | 149° |
| 2026-05-06 19:54 | 47.63104 | 9.98018 | 23771 ft | 337 kts | 148° |
| 2026-05-06 19:54 | 47.61168 | 10.00078 | 23081 ft | 339 kts | 148° |
| 2026-05-06 19:54 | 47.58481 | 10.02937 | 22143 ft | 341 kts | 148° |
| 2026-05-06 19:55 | 47.56536 | 10.05003 | 21488 ft | 344 kts | 148° |
| 2026-05-06 19:55 | 47.54577 | 10.07080 | 20825 ft | 347 kts | 148° |
| 2026-05-06 19:55 | 47.52600 | 10.09178 | 20165 ft | 350 kts | 147° |
| 2026-05-06 19:55 | 47.50617 | 10.11283 | 19513 ft | 352 kts | 147° |
| 2026-05-06 19:56 | 47.48619 | 10.13399 | 18846 ft | 354 kts | 147° |
| 2026-05-06 19:56 | 47.46599 | 10.15533 | 18201 ft | 356 kts | 147° |
| 2026-05-06 19:56 | 47.44574 | 10.17662 | 17534 ft | 357 kts | 148° |
| 2026-05-06 19:56 | 47.42478 | 10.19666 | 16742 ft | 359 kts | 150° |
| 2026-05-06 19:57 | 47.40334 | 10.21627 | 16185 ft | 364 kts | 150° |
| 2026-05-06 19:57 | 47.38162 | 10.23614 | 15947 ft | 365 kts | 150° |
| 2026-05-06 19:57 | 47.36037 | 10.25559 | 15930 ft | 347 kts | 150° |
| 2026-05-06 19:57 | 47.34099 | 10.27429 | 15919 ft | 317 kts | 142° |
| 2026-05-06 19:58 | 47.32686 | 10.29784 | 15913 ft | 292 kts | 123° |
| 2026-05-06 19:58 | 47.31914 | 10.32448 | 15904 ft | 272 kts | 108° |
| 2026-05-06 19:58 | 47.31509 | 10.35163 | 15611 ft | 270 kts | 104° |
| 2026-05-06 19:58 | 47.31149 | 10.37916 | 15115 ft | 275 kts | 104° |
| 2026-05-06 19:59 | 47.30787 | 10.40697 | 14761 ft | 275 kts | 104° |
| 2026-05-06 19:59 | 47.30421 | 10.43445 | 14493 ft | 272 kts | 104° |
| 2026-05-06 19:59 | 47.30047 | 10.46224 | 14355 ft | 273 kts | 104° |
| 2026-05-06 19:59 | 47.29663 | 10.49019 | 14249 ft | 273 kts | 104° |
| 2026-05-06 20:00 | 47.29282 | 10.51782 | 14181 ft | 273 kts | 104° |
| 2026-05-06 20:00 | 47.28902 | 10.54526 | 14102 ft | 273 kts | 104° |
| 2026-05-06 20:00 | 47.28594 | 10.57280 | 13901 ft | 272 kts | 94° |
| 2026-05-06 20:00 | 47.28650 | 10.60050 | 13687 ft | 267 kts | 88° |
| 2026-05-06 20:01 | 47.28807 | 10.62764 | 13443 ft | 262 kts | 87° |
| 2026-05-06 20:01 | 47.28968 | 10.65423 | 13181 ft | 258 kts | 88° |
| 2026-05-06 20:01 | 47.29114 | 10.68052 | 12982 ft | 252 kts | 88° |
| 2026-05-06 20:01 | 47.29249 | 10.70561 | 12943 ft | 239 kts | 89° |
| 2026-05-06 20:02 | 47.29377 | 10.72992 | 12955 ft | 238 kts | 89° |
| 2026-05-06 20:02 | 47.29500 | 10.75421 | 12942 ft | 237 kts | 89° |
| 2026-05-06 20:02 | 47.29622 | 10.77862 | 12944 ft | 237 kts | 89° |
| 2026-05-06 20:02 | 47.29729 | 10.80293 | 12963 ft | 237 kts | 91° |
| 2026-05-06 20:03 | 47.29748 | 10.82728 | 12943 ft | 234 kts | 93° |
| 2026-05-06 20:03 | 47.29770 | 10.85085 | 12861 ft | 224 kts | 92° |
| 2026-05-06 20:03 | 47.29814 | 10.87395 | 12461 ft | 226 kts | 91° |
| 2026-05-06 20:03 | 47.29877 | 10.89743 | 12014 ft | 229 kts | 90° |
| 2026-05-06 20:04 | 47.29955 | 10.92104 | 11565 ft | 230 kts | 90° |
| 2026-05-06 20:04 | 47.30039 | 10.94457 | 11068 ft | 227 kts | 90° |
| 2026-05-06 20:04 | 47.30124 | 10.96726 | 10718 ft | 215 kts | 90° |
| 2026-05-06 20:04 | 47.30206 | 10.98911 | 10186 ft | 212 kts | 90° |
| 2026-05-06 20:05 | 47.30286 | 11.01056 | 9743 ft | 208 kts | 90° |
| 2026-05-06 20:05 | 47.30363 | 11.03166 | 9236 ft | 205 kts | 90° |
| 2026-05-06 20:05 | 47.30436 | 11.05247 | 8969 ft | 201 kts | 90° |
| 2026-05-06 20:05 | 47.30517 | 11.07302 | 8941 ft | 193 kts | 86° |
| 2026-05-06 20:06 | 47.30737 | 11.09142 | 8900 ft | 172 kts | 92° |
| 2026-05-06 20:06 | 47.30389 | 11.10750 | 8912 ft | 163 kts | 129° |
| 2026-05-06 20:06 | 47.29746 | 11.12116 | 8923 ft | 164 kts | 115° |
| 2026-05-06 20:06 | 47.29717 | 11.13837 | 8636 ft | 175 kts | 80° |
| 2026-05-06 20:07 | 47.29775 | 11.15632 | 8037 ft | 185 kts | 109° |
| 2026-05-06 20:07 | 47.29334 | 11.17441 | 7554 ft | 186 kts | 116° |
| 2026-05-06 20:07 | 47.28790 | 11.19120 | 7103 ft | 182 kts | 120° |
| 2026-05-06 20:07 | 47.28185 | 11.20757 | 6537 ft | 181 kts | 122° |
| 2026-05-06 20:08 | 47.27569 | 11.22363 | 5907 ft | 183 kts | 121° |
| 2026-05-06 20:08 | 47.26899 | 11.23973 | 5269 ft | 182 kts | 124° |
| 2026-05-06 20:08 | 47.26073 | 11.25272 | 4945 ft | 165 kts | 138° |
| 2026-05-06 20:08 | 47.25468 | 11.26636 | 4532 ft | 160 kts | 107° |
| 2026-05-06 20:09 | 47.25375 | 11.28296 | 3942 ft | 169 kts | 91° |
| 2026-05-06 20:09 | 47.25594 | 11.30055 | 3202 ft | 181 kts | 80° |
| 2026-05-06 20:09 | 47.25779 | 11.31860 | 2647 ft | 176 kts | 87° |
| 2026-05-06 20:09 | 47.25925 | 11.33620 | 3168 ft | 173 kts | 87° |
| 2026-05-06 20:10 | 47.26111 | 11.35487 | 3654 ft | 194 kts | 84° |
| 2026-05-06 20:10 | 47.26282 | 11.37005 | 3942 ft | 208 kts | 83° |
| 2026-05-06 20:10 | 47.26313 | 11.37287 | 3976 ft | 209 kts | 83° |
| 2026-05-06 20:10 | 47.26552 | 11.39423 | 4056 ft | 213 kts | 83° |
| 2026-05-06 20:11 | 47.26791 | 11.41595 | 4066 ft | 213 kts | 83° |
| 2026-05-06 20:11 | 47.27045 | 11.43758 | 4067 ft | 214 kts | 79° |
| 2026-05-06 20:11 | 47.27518 | 11.45877 | 4068 ft | 216 kts | 69° |
| 2026-05-06 20:11 | 47.28161 | 11.47920 | 4066 ft | 219 kts | 67° |
| 2026-05-06 20:12 | 47.28831 | 11.49953 | 4054 ft | 218 kts | 66° |
| 2026-05-06 20:12 | 47.29502 | 11.51987 | 4051 ft | 219 kts | 66° |
| 2026-05-06 20:12 | 47.30170 | 11.54016 | 4044 ft | 219 kts | 66° |
| 2026-05-06 20:12 | 47.30834 | 11.56042 | 4049 ft | 219 kts | 66° |
| 2026-05-06 20:13 | 47.31509 | 11.58109 | 4046 ft | 219 kts | 66° |
| 2026-05-06 20:13 | 47.32169 | 11.60134 | 4185 ft | 218 kts | 66° |
| 2026-05-06 20:13 | 47.32831 | 11.62168 | 4683 ft | 221 kts | 66° |
| 2026-05-06 20:13 | 47.33501 | 11.64236 | 5188 ft | 222 kts | 66° |
| 2026-05-06 20:14 | 47.34171 | 11.66303 | 5685 ft | 223 kts | 66° |
| 2026-05-06 20:14 | 47.34842 | 11.68396 | 6186 ft | 225 kts | 66° |
| 2026-05-06 20:14 | 47.35518 | 11.70497 | 6686 ft | 227 kts | 66° |
| 2026-05-06 20:14 | 47.36198 | 11.72602 | 7206 ft | 229 kts | 66° |
| 2026-05-06 20:15 | 47.36888 | 11.74740 | 7735 ft | 232 kts | 66° |
| 2026-05-06 20:15 | 47.37583 | 11.76901 | 8253 ft | 234 kts | 66° |
| 2026-05-06 20:15 | 47.38288 | 11.79087 | 8765 ft | 236 kts | 66° |
| 2026-05-06 20:15 | 47.39003 | 11.81301 | 9196 ft | 240 kts | 67° |
| 2026-05-06 20:16 | 47.39722 | 11.83530 | 9342 ft | 241 kts | 67° |
| 2026-05-06 20:16 | 47.40440 | 11.85762 | 9330 ft | 241 kts | 67° |
| 2026-05-06 20:16 | 47.41184 | 11.87990 | 9330 ft | 242 kts | 60° |
| 2026-05-06 20:16 | 47.42301 | 11.89867 | 9350 ft | 244 kts | 43° |
| 2026-05-06 20:17 | 47.43605 | 11.91477 | 9351 ft | 245 kts | 40° |
| 2026-05-06 20:17 | 47.44946 | 11.93035 | 9337 ft | 245 kts | 39° |
| 2026-05-06 20:17 | 47.46304 | 11.94593 | 9330 ft | 245 kts | 39° |
| 2026-05-06 20:17 | 47.47669 | 11.96152 | 9326 ft | 246 kts | 39° |
| 2026-05-06 20:18 | 47.49029 | 11.97713 | 9316 ft | 246 kts | 40° |
| 2026-05-06 20:18 | 47.50178 | 11.99566 | 9295 ft | 242 kts | 66° |
| 2026-05-06 20:18 | 47.50540 | 12.01938 | 9306 ft | 234 kts | 99° |
| 2026-05-06 20:18 | 47.50013 | 12.04133 | 9307 ft | 225 kts | 131° |
| 2026-05-06 20:19 | 47.48843 | 12.05626 | 9326 ft | 223 kts | 150° |
| 2026-05-06 20:19 | 47.47501 | 12.06777 | 9324 ft | 220 kts | 153° |
| 2026-05-06 20:19 | 47.46182 | 12.07816 | 9331 ft | 210 kts | 155° |
| 2026-05-06 20:19 | 47.44794 | 12.08334 | 9314 ft | 205 kts | 190° |
| 2026-05-06 20:20 | 47.43517 | 12.07467 | 9335 ft | 205 kts | 221° |
| 2026-05-06 20:20 | 47.42636 | 12.05782 | 9346 ft | 210 kts | 235° |
| 2026-05-06 20:20 | 47.41857 | 12.03950 | 9343 ft | 211 kts | 234° |
| 2026-05-06 20:20 | 47.41061 | 12.02117 | 9350 ft | 212 kts | 234° |
| 2026-05-06 20:21 | 47.40259 | 12.00305 | 9349 ft | 211 kts | 234° |
| 2026-05-06 20:21 | 47.39443 | 11.98491 | 9165 ft | 215 kts | 234° |
| 2026-05-06 20:21 | 47.38591 | 11.96622 | 8715 ft | 224 kts | 234° |
| 2026-05-06 20:21 | 47.37725 | 11.94668 | 8258 ft | 232 kts | 240° |
| 2026-05-06 20:22 | 47.37032 | 11.92465 | 7798 ft | 240 kts | 244° |
| 2026-05-06 20:22 | 47.36327 | 11.90186 | 7336 ft | 246 kts | 244° |
| 2026-05-06 20:22 | 47.35595 | 11.87869 | 6873 ft | 252 kts | 243° |
| 2026-05-06 20:22 | 47.34838 | 11.85492 | 6407 ft | 258 kts | 244° |
| 2026-05-06 20:23 | 47.33887 | 11.83248 | 5929 ft | 261 kts | 226° |
| 2026-05-06 20:23 | 47.32650 | 11.81641 | 6590 ft | 219 kts | 221° |